createdAt,value
2019-03-04T00:00:10.488Z,11.47
2019-03-04T00:02:41.801Z,11.63
2019-03-04T00:05:11.500Z,10.17
2019-03-04T00:07:41.235Z,11.00
2019-03-04T00:10:12.235Z,9.60
2019-03-04T00:12:41.890Z,11.50
2019-03-04T00:15:11.508Z,9.87
2019-03-04T00:17:41.831Z,17.07
2019-03-04T00:20:11.795Z,7.33
2019-03-04T00:22:41.459Z,9.07
2019-03-04T00:25:11.135Z,8.93
2019-03-04T00:27:40.753Z,15.70
2019-03-04T00:30:10.532Z,9.07
2019-03-04T00:32:40.137Z,13.90
2019-03-04T00:35:09.904Z,9.33
2019-03-04T00:37:39.668Z,12.97
2019-03-04T00:40:09.820Z,13.43
2019-03-04T00:42:39.475Z,15.53
2019-03-04T00:45:09.478Z,8.90
2019-03-04T00:47:39.064Z,7.83
2019-03-04T00:50:09.121Z,8.77
2019-03-04T00:52:38.798Z,9.43
2019-03-04T00:55:08.943Z,9.00
2019-03-04T00:57:38.584Z,12.27
2019-03-04T01:00:13.643Z,11.10
2019-03-04T01:02:43.368Z,10.53
2019-03-04T01:05:13.133Z,6.83
2019-03-04T01:07:42.998Z,10.53
2019-03-04T01:10:13.383Z,11.30
2019-03-04T01:12:43.427Z,8.87
2019-03-04T01:15:15.236Z,11.70
2019-03-04T01:17:44.948Z,11.50
2019-03-04T01:20:15.803Z,10.17
2019-03-04T01:22:45.856Z,21.17
2019-03-04T01:25:16.874Z,10.80
2019-03-04T01:27:46.852Z,16.83
2019-03-04T01:30:18.608Z,9.33
2019-03-04T01:32:48.852Z,10.00
2019-03-04T01:35:18.523Z,7.17
2019-03-04T01:37:48.217Z,9.67
2019-03-04T01:40:19.472Z,8.20
2019-03-04T01:42:49.106Z,12.10
2019-03-04T01:45:19.010Z,11.93
2019-03-04T01:47:48.733Z,8.70
2019-03-04T01:50:18.479Z,10.53
2019-03-04T01:52:48.387Z,10.50
2019-03-04T01:55:18.544Z,8.67
2019-03-04T01:57:48.143Z,11.00
2019-03-04T02:00:18.876Z,11.37
2019-03-04T02:02:48.575Z,9.30
2019-03-04T02:05:19.540Z,9.23
2019-03-04T02:07:49.411Z,8.00
2019-03-04T02:10:19.444Z,8.63
2019-03-04T02:12:49.124Z,7.63
2019-03-04T02:15:19.375Z,10.13
2019-03-04T02:17:49.243Z,5.97
2019-03-04T02:20:19.239Z,7.13
2019-03-04T02:22:48.829Z,10.00
2019-03-04T02:25:18.839Z,6.20
2019-03-04T02:27:51.307Z,9.17
2019-03-04T02:30:23.442Z,5.70
2019-03-04T02:32:53.045Z,7.80
2019-03-04T02:35:22.723Z,6.70
2019-03-04T02:37:52.564Z,9.50
2019-03-04T02:40:22.252Z,9.33
2019-03-04T02:42:51.830Z,6.30
2019-03-04T02:45:21.522Z,7.50
2019-03-04T02:47:51.140Z,6.97
2019-03-04T02:50:20.820Z,5.67
2019-03-04T02:52:50.434Z,6.27
2019-03-04T02:55:20.008Z,6.97
2019-03-04T02:57:49.639Z,6.40
2019-03-04T03:00:19.484Z,5.97
2019-03-04T03:02:49.171Z,7.00
2019-03-04T03:05:19.011Z,7.13
2019-03-04T03:07:48.620Z,4.63
2019-03-04T03:10:18.200Z,5.77
2019-03-04T03:12:47.830Z,6.70
2019-03-04T03:15:18.822Z,6.47
2019-03-04T03:17:48.430Z,7.83
2019-03-04T03:20:18.012Z,6.43
2019-03-04T03:22:47.639Z,8.43
2019-03-04T03:25:17.229Z,5.67
2019-03-04T03:27:46.829Z,5.47
2019-03-04T03:30:16.560Z,5.97
2019-03-04T03:32:46.257Z,4.77
2019-03-04T03:35:16.497Z,5.43
2019-03-04T03:37:46.262Z,5.73
2019-03-04T03:40:16.229Z,3.70
2019-03-04T03:42:45.856Z,8.03
2019-03-04T03:45:16.303Z,3.53
2019-03-04T03:47:45.912Z,4.97
2019-03-04T03:50:15.891Z,4.90
2019-03-04T03:52:45.501Z,3.90
2019-03-04T03:55:15.588Z,4.97
2019-03-04T03:57:45.448Z,5.67
2019-03-04T04:00:16.380Z,3.27
2019-03-04T04:02:46.065Z,8.00
2019-03-04T04:05:15.805Z,5.90
2019-03-04T04:07:45.477Z,4.10
2019-03-04T04:10:15.359Z,4.37
2019-03-04T04:12:45.980Z,3.00
2019-03-04T04:15:16.048Z,2.57
2019-03-04T04:17:45.646Z,3.50
2019-03-04T04:20:15.545Z,4.23
2019-03-04T04:22:45.271Z,4.57
2019-03-04T04:25:16.406Z,3.20
2019-03-04T04:27:45.976Z,2.70
2019-03-04T04:30:18.127Z,4.03
2019-03-04T04:32:47.725Z,4.97
2019-03-04T04:35:17.343Z,5.30
2019-03-04T04:37:46.971Z,4.13
2019-03-04T04:40:16.600Z,5.30
2019-03-04T04:42:46.182Z,5.20
2019-03-04T04:45:15.862Z,3.27
2019-03-04T04:47:45.484Z,5.80
2019-03-04T04:50:15.083Z,3.60
2019-03-04T04:52:44.688Z,3.40
2019-03-04T04:55:14.296Z,3.40
2019-03-04T04:57:44.880Z,6.33
2019-03-04T05:00:15.028Z,6.37
2019-03-04T05:02:44.663Z,7.13
2019-03-04T05:05:14.575Z,4.40
2019-03-04T05:07:44.264Z,6.10
2019-03-04T05:10:16.135Z,9.23
2019-03-04T05:12:46.036Z,3.07
2019-03-04T05:15:16.072Z,9.17
2019-03-04T05:17:45.723Z,7.40
2019-03-04T05:20:19.913Z,3.73
2019-03-04T05:22:49.580Z,3.63
2019-03-04T05:25:19.566Z,3.87
2019-03-04T05:27:49.161Z,6.90
2019-03-04T05:30:19.280Z,3.80
2019-03-04T05:32:48.866Z,3.87
2019-03-04T05:35:18.480Z,4.27
2019-03-04T05:37:48.071Z,6.03
2019-03-04T05:40:17.774Z,6.33
2019-03-04T05:42:47.625Z,3.80
2019-03-04T05:45:17.528Z,4.47
2019-03-04T05:47:47.112Z,5.40
2019-03-04T05:50:16.990Z,4.60
2019-03-04T05:52:46.571Z,4.13
2019-03-04T05:55:16.249Z,3.03
2019-03-04T05:57:45.832Z,2.50
2019-03-04T06:00:17.684Z,6.90
2019-03-04T06:02:47.323Z,4.57
2019-03-04T06:05:17.111Z,4.50
2019-03-04T06:07:50.067Z,5.23
2019-03-04T06:10:20.666Z,4.07
2019-03-04T06:12:50.696Z,11.63
2019-03-04T06:15:21.187Z,3.40
2019-03-04T06:17:50.849Z,3.13
2019-03-04T06:20:21.935Z,2.33
2019-03-04T06:22:51.522Z,7.00
2019-03-04T06:25:25.793Z,6.07
2019-03-04T06:27:55.406Z,2.00
2019-03-04T06:30:25.607Z,5.63
2019-03-04T06:32:55.491Z,2.67
2019-03-04T06:35:25.099Z,3.07
2019-03-04T06:37:55.264Z,4.13
2019-03-04T06:40:25.306Z,3.50
2019-03-04T06:42:54.902Z,5.70
2019-03-04T06:45:24.515Z,4.53
2019-03-04T06:47:54.437Z,3.17
2019-03-04T06:50:53.189Z,3.63
2019-03-04T06:54:02.094Z,3.67
2019-03-04T06:56:44.819Z,3.30
2019-03-04T06:59:48.840Z,7.90
2019-03-04T07:02:19.586Z,3.37
2019-03-04T07:05:11.999Z,6.67
2019-03-04T07:07:41.680Z,4.30
2019-03-04T07:10:11.284Z,10.97
2019-03-04T07:12:40.914Z,3.47
2019-03-04T07:15:10.744Z,4.80
2019-03-04T07:17:40.343Z,2.23
2019-03-04T07:20:11.632Z,2.73
2019-03-04T07:22:41.304Z,4.30
2019-03-04T07:25:11.068Z,6.30
2019-03-04T07:27:40.764Z,5.63
2019-03-04T07:30:12.156Z,3.63
2019-03-04T07:32:41.779Z,2.20
2019-03-04T07:35:11.633Z,5.17
2019-03-04T07:37:41.267Z,6.93
2019-03-04T07:40:11.204Z,11.13
2019-03-04T07:42:40.912Z,13.90
2019-03-04T07:45:11.730Z,5.40
2019-03-04T07:47:41.468Z,5.10
2019-03-04T07:50:11.420Z,5.03
2019-03-04T07:52:41.297Z,2.20
2019-03-04T07:55:11.077Z,4.53
2019-03-04T07:57:41.022Z,8.10
2019-03-04T08:00:11.197Z,5.17
2019-03-04T08:02:41.128Z,5.77
2019-03-04T08:05:10.920Z,2.97
2019-03-04T08:07:49.081Z,3.87
2019-03-04T08:10:37.133Z,2.87
2019-03-04T08:13:15.028Z,4.80
2019-03-04T08:15:51.306Z,3.27
2019-03-04T08:18:20.884Z,5.70
2019-03-04T08:20:50.484Z,6.87
2019-03-04T08:23:20.092Z,4.90
2019-03-04T08:25:49.783Z,5.17
2019-03-04T08:28:20.224Z,2.83
2019-03-04T08:30:49.837Z,3.90
2019-03-04T08:33:19.505Z,4.60
2019-03-04T08:35:49.122Z,4.47
2019-03-04T08:38:18.703Z,6.43
2019-03-04T08:40:48.592Z,9.63
2019-03-04T08:43:18.264Z,2.50
2019-03-04T08:45:47.876Z,2.20
2019-03-04T08:48:17.464Z,10.77
2019-03-04T08:50:47.072Z,6.87
2019-03-04T08:53:16.676Z,7.60
2019-03-04T08:55:46.322Z,2.67
2019-03-04T08:58:15.916Z,1.83
2019-03-04T09:00:45.591Z,12.57
2019-03-04T09:03:15.201Z,2.47
2019-03-04T09:05:44.840Z,0.80
2019-03-04T09:08:14.464Z,0.60
2019-03-04T09:10:44.122Z,2.83
2019-03-04T09:13:13.800Z,1.83
2019-03-04T09:15:43.536Z,1.00
2019-03-04T09:18:13.146Z,2.60
2019-03-04T09:20:42.315Z,1.80
2019-03-04T09:23:11.443Z,4.13
2019-03-04T09:25:42.108Z,0.70
2019-03-04T09:28:13.116Z,0.60
2019-03-04T09:30:42.475Z,0.97
2019-03-04T09:33:11.655Z,0.87
2019-03-04T09:35:41.003Z,1.83
2019-03-04T09:38:10.108Z,0.70
2019-03-04T09:40:39.187Z,3.13
2019-03-04T09:43:08.261Z,1.10
2019-03-04T09:45:39.176Z,1.67
2019-03-04T09:48:08.362Z,0.60
2019-03-04T09:50:37.447Z,1.10
2019-03-04T09:53:06.669Z,0.97
2019-03-04T09:55:35.759Z,1.50
2019-03-04T09:58:04.827Z,2.47
2019-03-04T10:00:37.742Z,0.93
2019-03-04T10:03:24.812Z,0.73
2019-03-04T10:06:19.215Z,0.77
2019-03-04T10:09:16.500Z,0.80
2019-03-04T10:11:47.831Z,3.57
2019-03-04T10:14:22.595Z,1.00
2019-03-04T10:16:58.734Z,1.07
2019-03-04T10:19:50.354Z,2.83
2019-03-04T10:22:25.497Z,2.73
2019-03-04T10:25:05.244Z,1.27
2019-03-04T10:27:38.727Z,3.57
2019-03-04T10:30:13.369Z,4.17
2019-03-04T10:33:04.616Z,2.50
2019-03-04T10:35:41.504Z,3.33
2019-03-04T10:38:22.546Z,3.70
2019-03-04T10:40:50.711Z,3.47
2019-03-04T10:43:38.741Z,1.87
2019-03-04T10:46:17.090Z,1.93
2019-03-04T10:48:46.200Z,4.17
2019-03-04T10:51:15.628Z,1.60
2019-03-04T10:53:44.703Z,0.87
2019-03-04T10:56:13.767Z,2.00
2019-03-04T10:58:42.866Z,1.47
2019-03-04T11:01:12.044Z,1.47
2019-03-04T11:03:41.513Z,1.13
2019-03-04T11:06:10.607Z,1.40
2019-03-04T11:08:39.693Z,1.23
2019-03-04T11:11:08.913Z,3.00
2019-03-04T11:13:38.276Z,5.80
2019-03-04T11:16:07.443Z,1.97
2019-03-04T11:18:36.559Z,1.87
2019-03-04T11:21:05.641Z,3.07
2019-03-04T11:23:34.794Z,2.83
2019-03-04T11:26:04.042Z,2.23
2019-03-04T11:28:33.147Z,1.83
2019-03-04T11:31:02.216Z,4.67
2019-03-04T11:33:31.331Z,3.57
2019-03-04T11:36:00.732Z,2.50
2019-03-04T11:38:34.585Z,0.93
2019-03-04T11:41:04.015Z,2.30
2019-03-04T11:43:33.164Z,2.60
2019-03-04T11:46:02.271Z,1.80
2019-03-04T11:48:31.632Z,2.93
2019-03-04T11:51:00.728Z,3.00
2019-03-04T11:53:29.800Z,6.80
2019-03-04T11:55:58.901Z,0.90
2019-03-04T11:58:28.430Z,1.27
2019-03-04T12:01:02.083Z,1.00
2019-03-04T12:03:31.177Z,4.30
2019-03-04T12:06:00.295Z,4.93
2019-03-04T12:08:29.388Z,0.83
2019-03-04T12:10:58.487Z,4.60
2019-03-04T12:13:27.548Z,1.27
2019-03-04T12:15:56.651Z,0.90
2019-03-04T12:18:25.891Z,1.67
2019-03-04T12:20:55.027Z,1.80
2019-03-04T12:23:24.115Z,0.87
2019-03-04T12:25:53.335Z,1.23
2019-03-04T12:28:22.814Z,1.23
2019-03-04T12:30:52.131Z,2.07
2019-03-04T12:33:22.348Z,0.80
2019-03-04T12:35:51.435Z,3.07
2019-03-04T12:38:20.691Z,1.03
2019-03-04T12:40:49.775Z,3.20
2019-03-04T12:43:20.104Z,0.63
2019-03-04T12:45:49.171Z,1.83
2019-03-04T12:48:18.267Z,0.70
2019-03-04T12:50:47.354Z,0.57
2019-03-04T12:53:16.442Z,0.67
2019-03-04T12:55:45.522Z,0.77
2019-03-04T12:58:14.629Z,0.70
2019-03-04T13:00:43.740Z,0.70
2019-03-04T13:03:22.440Z,1.10
2019-03-04T13:05:51.564Z,0.83
2019-03-04T13:08:20.686Z,1.13
2019-03-04T13:10:49.835Z,0.80
2019-03-04T13:13:18.993Z,0.90
2019-03-04T13:15:48.787Z,1.43
2019-03-04T13:18:17.861Z,0.63
2019-03-04T13:20:47.304Z,0.70
2019-03-04T13:23:16.390Z,1.20
2019-03-04T13:25:45.462Z,1.17
2019-03-04T13:28:14.613Z,0.70
2019-03-04T13:30:43.722Z,0.70
2019-03-04T13:33:13.040Z,1.40
2019-03-04T13:35:42.214Z,1.43
2019-03-04T13:38:12.547Z,0.83
2019-03-04T13:40:41.791Z,1.73
2019-03-04T13:43:11.032Z,2.60
2019-03-04T13:45:40.207Z,1.63
2019-03-04T13:48:09.794Z,1.30
2019-03-04T13:50:39.144Z,2.53
2019-03-04T13:53:08.300Z,2.20
2019-03-04T13:55:37.471Z,2.77
2019-03-04T13:58:06.575Z,2.20
2019-03-04T14:00:36.136Z,0.90
2019-03-04T14:03:05.430Z,1.70
2019-03-04T14:05:34.541Z,2.30
2019-03-04T14:08:03.835Z,1.03
2019-03-04T14:10:33.800Z,0.80
2019-03-04T14:13:02.895Z,1.77
2019-03-04T14:15:32.880Z,4.40
2019-03-04T14:18:01.976Z,1.70
2019-03-04T14:20:31.096Z,3.60
2019-03-04T14:23:00.227Z,3.53
2019-03-04T14:25:29.296Z,1.97
2019-03-04T14:27:58.381Z,2.10
2019-03-04T14:30:27.492Z,3.10
2019-03-04T14:32:56.572Z,1.70
2019-03-04T14:35:25.808Z,1.23
2019-03-04T14:37:54.924Z,1.53
2019-03-04T14:40:24.331Z,2.07
2019-03-04T14:42:55.112Z,3.07
2019-03-04T14:45:24.540Z,2.43
2019-03-04T14:47:53.748Z,3.00
2019-03-04T14:50:23.164Z,1.67
2019-03-04T14:52:52.367Z,2.63
2019-03-04T14:55:21.532Z,0.90
2019-03-04T14:57:50.660Z,2.20
2019-03-04T15:00:22.440Z,4.80
2019-03-04T15:02:52.008Z,2.27
2019-03-04T15:05:21.233Z,3.27
2019-03-04T15:07:50.395Z,2.20
2019-03-04T15:10:19.499Z,2.10
2019-03-04T15:12:49.622Z,7.47
2019-03-04T15:15:19.874Z,1.37
2019-03-04T15:17:49.033Z,2.53
2019-03-04T15:20:19.556Z,2.00
2019-03-04T15:22:49.803Z,1.43
2019-03-04T15:25:28.928Z,3.27
2019-03-04T15:28:10.974Z,2.60
2019-03-04T15:30:40.356Z,5.87
2019-03-04T15:33:17.594Z,1.40
2019-03-04T15:35:40.202Z,2.33
2019-03-04T15:38:09.276Z,3.87
2019-03-04T15:40:38.462Z,3.67
2019-03-04T15:43:07.548Z,3.90
2019-03-04T15:45:36.638Z,3.23
2019-03-04T15:48:05.741Z,2.83
2019-03-04T15:50:35.124Z,3.80
2019-03-04T15:53:04.404Z,2.60
2019-03-04T15:55:33.974Z,3.83
2019-03-04T15:58:03.716Z,5.97
2019-03-04T16:00:33.501Z,3.50
2019-03-04T16:03:03.201Z,4.43
2019-03-04T16:05:33.383Z,3.73
2019-03-04T16:08:07.553Z,2.30
2019-03-04T16:10:36.408Z,2.80
2019-03-04T16:13:07.031Z,4.40
2019-03-04T16:15:38.455Z,3.40
2019-03-04T16:18:08.892Z,2.87
2019-03-04T16:20:38.563Z,4.07
2019-03-04T16:23:08.325Z,2.30
2019-03-04T16:25:38.199Z,2.27
2019-03-04T16:28:14.079Z,4.10
2019-03-04T16:30:45.649Z,4.90
2019-03-04T16:33:15.421Z,1.70
2019-03-04T16:35:45.083Z,4.63
2019-03-04T16:38:14.767Z,3.27
2019-03-04T16:40:44.355Z,1.90
2019-03-04T16:43:14.435Z,4.10
2019-03-04T16:45:44.696Z,3.50
2019-03-04T16:48:14.302Z,5.20
2019-03-04T16:50:44.159Z,4.63
2019-03-04T16:53:14.664Z,6.53
2019-03-04T16:55:44.343Z,6.70
2019-03-04T16:58:13.928Z,6.07
2019-03-04T17:00:43.767Z,8.60
2019-03-04T17:03:13.739Z,7.63
2019-03-04T17:05:43.354Z,3.53
2019-03-04T17:08:13.027Z,5.63
2019-03-04T17:10:42.918Z,3.83
2019-03-04T17:13:12.661Z,7.07
2019-03-04T17:15:42.270Z,5.20
2019-03-04T17:18:11.920Z,12.10
2019-03-04T17:20:41.660Z,9.77
2019-03-04T17:23:11.595Z,6.70
2019-03-04T17:25:41.343Z,7.83
2019-03-04T17:28:11.276Z,6.27
2019-03-04T17:30:41.251Z,8.43
2019-03-04T17:33:10.913Z,9.50
2019-03-04T17:35:40.648Z,8.63
2019-03-04T17:38:10.274Z,10.07
2019-03-04T17:40:39.936Z,9.83
2019-03-04T17:43:09.527Z,9.70
2019-03-04T17:45:39.278Z,7.37
2019-03-04T17:48:09.028Z,12.17
2019-03-04T17:50:38.743Z,9.43
2019-03-04T17:53:09.658Z,11.53
2019-03-04T17:55:39.288Z,11.97
2019-03-04T17:58:09.056Z,6.57
2019-03-04T18:00:39.909Z,16.37
2019-03-04T18:03:09.613Z,13.30
2019-03-04T18:05:39.732Z,12.90
2019-03-04T18:08:09.329Z,12.10
2019-03-04T18:10:38.923Z,13.67
2019-03-04T18:13:10.176Z,9.80
2019-03-04T18:15:39.824Z,11.00
2019-03-04T18:18:09.504Z,8.70
2019-03-04T18:20:39.170Z,9.90
2019-03-04T18:23:08.945Z,15.30
2019-03-04T18:25:41.713Z,14.23
2019-03-04T18:28:22.367Z,7.50
2019-03-04T18:31:09.791Z,13.13
2019-03-04T18:34:33.096Z,8.63
2019-03-04T18:37:28.320Z,8.43
2019-03-04T18:40:15.888Z,10.00
2019-03-04T18:43:05.207Z,8.17
2019-03-04T18:46:09.195Z,9.73
2019-03-04T18:48:59.975Z,9.40
2019-03-04T18:51:31.202Z,11.73
2019-03-04T18:54:15.283Z,8.20
2019-03-04T18:56:45.030Z,11.87
2019-03-04T18:59:14.643Z,9.97
2019-03-04T19:01:44.483Z,12.97
2019-03-04T19:04:14.159Z,9.77
2019-03-04T19:06:43.939Z,14.30
2019-03-04T19:09:14.071Z,11.27
2019-03-04T19:11:44.031Z,13.23
2019-03-04T19:14:13.662Z,20.17
2019-03-04T19:16:43.599Z,8.63
2019-03-04T19:19:13.278Z,15.57
2019-03-04T19:21:42.868Z,11.33
2019-03-04T19:24:13.605Z,15.13
2019-03-04T19:26:43.347Z,10.53
2019-03-04T19:29:12.942Z,16.37
2019-03-04T19:31:42.538Z,8.37
2019-03-04T19:34:12.142Z,8.53
2019-03-04T19:36:41.726Z,11.13
2019-03-04T19:39:11.948Z,10.70
2019-03-04T19:41:41.918Z,13.80
2019-03-04T19:44:11.821Z,11.57
2019-03-04T19:46:41.480Z,9.33
2019-03-04T19:49:11.313Z,11.13
2019-03-04T19:51:40.984Z,11.07
2019-03-04T19:54:10.711Z,9.60
2019-03-04T19:56:40.315Z,5.70
2019-03-04T19:59:10.239Z,7.87
2019-03-04T20:01:40.985Z,12.07
2019-03-04T20:04:10.723Z,9.87
2019-03-04T20:06:40.488Z,14.33
2019-03-04T20:09:10.276Z,8.27
2019-03-04T20:11:41.463Z,10.07
2019-03-04T20:14:11.640Z,8.17
2019-03-04T20:16:41.306Z,7.20
2019-03-04T20:19:10.908Z,8.83
2019-03-04T20:21:40.505Z,11.60
2019-03-04T20:24:10.176Z,8.73
2019-03-04T20:26:40.148Z,10.00
2019-03-04T20:29:09.776Z,6.40
2019-03-04T20:31:40.634Z,6.80
2019-03-04T20:34:10.220Z,13.67
2019-03-04T20:36:39.803Z,8.53
2019-03-04T20:39:11.840Z,7.87
2019-03-04T20:41:41.924Z,9.87
2019-03-04T20:44:13.016Z,9.80
2019-03-04T20:46:42.608Z,6.23
2019-03-04T20:49:12.244Z,8.13
2019-03-04T20:51:42.897Z,6.23
2019-03-04T20:54:12.593Z,13.37
2019-03-04T20:56:42.227Z,8.27
2019-03-04T20:59:12.179Z,8.13
2019-03-04T21:01:42.040Z,7.23
2019-03-04T21:04:11.760Z,8.17
2019-03-04T21:06:41.785Z,9.83
2019-03-04T21:09:12.747Z,9.87
2019-03-04T21:11:42.893Z,9.67
2019-03-04T21:14:12.575Z,11.30
2019-03-04T21:16:42.197Z,6.10
2019-03-04T21:19:11.924Z,2.33
2019-03-04T21:21:41.532Z,7.20
2019-03-04T21:24:11.264Z,8.80
2019-03-04T21:26:44.371Z,5.77
2019-03-04T21:29:45.015Z,7.73
2019-03-04T21:32:48.111Z,7.33
2019-03-04T21:35:54.984Z,12.10
2019-03-04T21:38:30.065Z,7.77
2019-03-04T21:41:28.124Z,9.13
2019-03-04T21:44:26.583Z,11.27
2019-03-04T21:47:19.849Z,6.23
2019-03-04T21:49:52.497Z,13.23
2019-03-04T21:52:43.185Z,10.80
2019-03-04T21:55:17.684Z,6.97
2019-03-04T21:57:51.039Z,6.83
2019-03-04T22:00:28.088Z,12.40
2019-03-04T22:03:28.406Z,7.67
2019-03-04T22:05:58.412Z,4.90
2019-03-04T22:08:28.175Z,7.40
2019-03-04T22:10:58.658Z,10.43
2019-03-04T22:13:28.402Z,8.00
2019-03-04T22:15:58.331Z,5.73
2019-03-04T22:18:27.913Z,6.90
2019-03-04T22:20:57.503Z,6.67
2019-03-04T22:23:27.315Z,5.20
2019-03-04T22:26:02.003Z,20.33
2019-03-04T22:28:28.259Z,5.50
2019-03-04T22:30:57.854Z,11.20
2019-03-04T22:33:27.552Z,8.07
2019-03-04T22:35:57.150Z,11.40
2019-03-04T22:38:26.955Z,13.20
2019-03-04T22:40:56.667Z,4.27
2019-03-04T22:43:26.289Z,5.00
2019-03-04T22:45:55.964Z,13.83
2019-03-04T22:48:25.579Z,10.27
2019-03-04T22:50:55.151Z,10.73
2019-03-04T22:53:24.788Z,15.00
2019-03-04T22:55:54.495Z,12.07
2019-03-04T22:58:28.667Z,7.57
2019-03-04T23:01:34.921Z,10.53
2019-03-04T23:04:40.248Z,6.33
2019-03-04T23:07:32.921Z,10.37
2019-03-04T23:10:15.253Z,12.73
2019-03-04T23:13:27.224Z,7.67
2019-03-04T23:15:58.427Z,8.33
2019-03-04T23:18:28.019Z,6.10
2019-03-04T23:20:57.630Z,15.47
2019-03-04T23:23:27.307Z,9.83
2019-03-04T23:25:57.005Z,7.50
2019-03-04T23:28:26.601Z,14.47
2019-03-04T23:30:56.244Z,13.17
2019-03-04T23:33:25.833Z,5.53
2019-03-04T23:35:55.443Z,10.40
2019-03-04T23:38:26.136Z,9.50
2019-03-04T23:40:56.138Z,12.70
2019-03-04T23:43:25.727Z,6.43
2019-03-04T23:45:55.750Z,8.20
2019-03-04T23:48:25.358Z,8.70
2019-03-04T23:51:01.019Z,12.50
2019-03-04T23:53:31.273Z,12.73
2019-03-04T23:56:01.107Z,14.40
2019-03-04T23:58:30.716Z,8.40
